sensor_id;sensor_type;location;lat;lon;timestamp;P1;durP1;ratioP1;P2;durP2;ratioP2
42092;SDS011;28974;50.316;18.960;2023-04-28T00:10:58;96.63;;;35.35;;
42092;SDS011;28974;50.316;18.960;2023-04-28T00:22:59;80.18;;;32.60;;
42092;SDS011;28974;50.316;18.960;2023-04-28T00:35:00;66.88;;;28.67;;
42092;SDS011;28974;50.316;18.960;2023-04-28T00:47:00;69.97;;;26.98;;
42092;SDS011;28974;50.316;18.960;2023-04-28T00:59:00;72.03;;;27.00;;
42092;SDS011;28974;50.316;18.960;2023-04-28T01:11:01;66.82;;;27.30;;
42092;SDS011;28974;50.316;18.960;2023-04-28T01:23:20;67.60;;;26.35;;
42092;SDS011;28974;50.316;18.960;2023-04-28T01:35:21;106.20;;;42.03;;
42092;SDS011;28974;50.316;18.960;2023-04-28T01:47:22;87.75;;;33.30;;
42092;SDS011;28974;50.316;18.960;2023-04-28T01:59:22;82.15;;;34.90;;
42092;SDS011;28974;50.316;18.960;2023-04-28T02:11:23;121.90;;;46.33;;
42092;SDS011;28974;50.316;18.960;2023-04-28T02:23:29;120.82;;;42.70;;
42092;SDS011;28974;50.316;18.960;2023-04-28T02:35:30;89.78;;;40.20;;
42092;SDS011;28974;50.316;18.960;2023-04-28T02:47:31;108.85;;;43.58;;
42092;SDS011;28974;50.316;18.960;2023-04-28T02:59:31;96.78;;;42.85;;
42092;SDS011;28974;50.316;18.960;2023-04-28T03:11:31;111.95;;;48.80;;
42092;SDS011;28974;50.316;18.960;2023-04-28T03:23:32;124.90;;;53.43;;
42092;SDS011;28974;50.316;18.960;2023-04-28T03:35:33;94.93;;;42.75;;
42092;SDS011;28974;50.316;18.960;2023-04-28T03:47:33;96.35;;;37.22;;
42092;SDS011;28974;50.316;18.960;2023-04-28T03:59:34;99.68;;;38.60;;
42092;SDS011;28974;50.316;18.960;2023-04-28T04:11:34;104.07;;;46.20;;
42092;SDS011;28974;50.316;18.960;2023-04-28T04:23:35;124.32;;;52.53;;
42092;SDS011;28974;50.316;18.960;2023-04-28T04:35:37;114.38;;;44.75;;
42092;SDS011;28974;50.316;18.960;2023-04-28T04:47:38;118.70;;;48.23;;
42092;SDS011;28974;50.316;18.960;2023-04-28T04:59:39;118.07;;;42.22;;
42092;SDS011;28974;50.316;18.960;2023-04-28T05:11:45;83.55;;;38.92;;
42092;SDS011;28974;50.316;18.960;2023-04-28T05:23:45;88.38;;;36.42;;
42092;SDS011;28974;50.316;18.960;2023-04-28T05:35:46;81.25;;;33.00;;
42092;SDS011;28974;50.316;18.960;2023-04-28T05:47:48;58.78;;;27.60;;
42092;SDS011;28974;50.316;18.960;2023-04-28T05:59:48;54.13;;;23.40;;
42092;SDS011;28974;50.316;18.960;2023-04-28T06:11:49;49.15;;;19.48;;
42092;SDS011;28974;50.316;18.960;2023-04-28T06:23:49;35.88;;;16.45;;
42092;SDS011;28974;50.316;18.960;2023-04-28T06:35:51;32.22;;;14.90;;
42092;SDS011;28974;50.316;18.960;2023-04-28T06:47:52;28.00;;;13.63;;
42092;SDS011;28974;50.316;18.960;2023-04-28T06:59:54;25.67;;;12.52;;
42092;SDS011;28974;50.316;18.960;2023-04-28T07:11:55;28.77;;;12.07;;
42092;SDS011;28974;50.316;18.960;2023-04-28T07:23:55;20.88;;;9.65;;
42092;SDS011;28974;50.316;18.960;2023-04-28T07:35:56;21.60;;;9.35;;
42092;SDS011;28974;50.316;18.960;2023-04-28T07:47:56;28.27;;;8.63;;
42092;SDS011;28974;50.316;18.960;2023-04-28T07:59:56;21.40;;;8.88;;
42092;SDS011;28974;50.316;18.960;2023-04-28T08:11:57;19.35;;;7.18;;
42092;SDS011;28974;50.316;18.960;2023-04-28T08:23:58;21.95;;;7.68;;
42092;SDS011;28974;50.316;18.960;2023-04-28T08:35:59;13.57;;;6.28;;
42092;SDS011;28974;50.316;18.960;2023-04-28T08:47:59;19.92;;;8.07;;
42092;SDS011;28974;50.316;18.960;2023-04-28T09:00:00;18.67;;;7.50;;
42092;SDS011;28974;50.316;18.960;2023-04-28T09:12:01;12.77;;;6.40;;
42092;SDS011;28974;50.316;18.960;2023-04-28T09:24:03;24.30;;;8.88;;
42092;SDS011;28974;50.316;18.960;2023-04-28T09:36:03;19.75;;;8.32;;
42092;SDS011;28974;50.316;18.960;2023-04-28T09:48:13;13.18;;;7.47;;
42092;SDS011;28974;50.316;18.960;2023-04-28T10:00:13;20.60;;;8.73;;
42092;SDS011;28974;50.316;18.960;2023-04-28T10:12:14;21.13;;;8.48;;
42092;SDS011;28974;50.316;18.960;2023-04-28T10:24:14;18.73;;;8.02;;
42092;SDS011;28974;50.316;18.960;2023-04-28T11:00:41;20.48;;;6.20;;
42092;SDS011;28974;50.316;18.960;2023-04-28T11:13:23;15.05;;;5.97;;
42092;SDS011;28974;50.316;18.960;2023-04-28T11:25:05;10.02;;;6.35;;
42092;SDS011;28974;50.316;18.960;2023-04-28T11:37:05;17.25;;;6.30;;
42092;SDS011;28974;50.316;18.960;2023-04-28T11:49:07;16.73;;;5.72;;
42092;SDS011;28974;50.316;18.960;2023-04-28T12:01:09;12.77;;;5.33;;
42092;SDS011;28974;50.316;18.960;2023-04-28T12:13:16;16.92;;;5.50;;
42092;SDS011;28974;50.316;18.960;2023-04-28T12:25:16;21.60;;;5.23;;
42092;SDS011;28974;50.316;18.960;2023-04-28T12:37:18;10.63;;;4.70;;
42092;SDS011;28974;50.316;18.960;2023-04-28T12:49:18;8.70;;;4.53;;
42092;SDS011;28974;50.316;18.960;2023-04-28T13:01:19;14.07;;;5.22;;
42092;SDS011;28974;50.316;18.960;2023-04-28T13:13:19;12.35;;;5.00;;
42092;SDS011;28974;50.316;18.960;2023-04-28T13:25:20;9.85;;;4.30;;
42092;SDS011;28974;50.316;18.960;2023-04-28T13:37:20;12.95;;;4.78;;
42092;SDS011;28974;50.316;18.960;2023-04-28T13:49:21;19.38;;;5.07;;
42092;SDS011;28974;50.316;18.960;2023-04-28T14:01:22;24.73;;;5.22;;
42092;SDS011;28974;50.316;18.960;2023-04-28T14:13:24;11.85;;;4.80;;
42092;SDS011;28974;50.316;18.960;2023-04-28T14:25:24;10.18;;;4.78;;
42092;SDS011;28974;50.316;18.960;2023-04-28T14:37:26;9.20;;;4.55;;
42092;SDS011;28974;50.316;18.960;2023-04-28T14:49:26;13.52;;;5.28;;
42092;SDS011;28974;50.316;18.960;2023-04-28T15:01:27;12.70;;;4.88;;
42092;SDS011;28974;50.316;18.960;2023-04-28T15:13:27;20.40;;;5.28;;
42092;SDS011;28974;50.316;18.960;2023-04-28T15:25:28;8.02;;;4.35;;
42092;SDS011;28974;50.316;18.960;2023-04-28T15:49:34;11.30;;;5.23;;
42092;SDS011;28974;50.316;18.960;2023-04-28T16:01:35;21.80;;;4.28;;
42092;SDS011;28974;50.316;18.960;2023-04-28T16:13:36;23.35;;;4.70;;
42092;SDS011;28974;50.316;18.960;2023-04-28T16:25:37;17.17;;;4.95;;
42092;SDS011;28974;50.316;18.960;2023-04-28T16:37:40;8.82;;;4.53;;
42092;SDS011;28974;50.316;18.960;2023-04-28T16:49:42;12.32;;;4.65;;
42092;SDS011;28974;50.316;18.960;2023-04-28T17:01:42;7.75;;;5.05;;
42092;SDS011;28974;50.316;18.960;2023-04-28T17:13:42;10.52;;;4.68;;
42092;SDS011;28974;50.316;18.960;2023-04-28T17:25:43;15.85;;;4.45;;
42092;SDS011;28974;50.316;18.960;2023-04-28T17:37:43;8.98;;;4.47;;
42092;SDS011;28974;50.316;18.960;2023-04-28T17:49:43;16.50;;;6.45;;
42092;SDS011;28974;50.316;18.960;2023-04-28T18:01:44;20.52;;;7.25;;
42092;SDS011;28974;50.316;18.960;2023-04-28T18:13:44;11.93;;;6.47;;
42092;SDS011;28974;50.316;18.960;2023-04-28T18:25:45;13.70;;;7.32;;
42092;SDS011;28974;50.316;18.960;2023-04-28T18:37:45;15.00;;;6.28;;
42092;SDS011;28974;50.316;18.960;2023-04-28T18:49:46;16.17;;;6.70;;
42092;SDS011;28974;50.316;18.960;2023-04-28T19:01:46;14.23;;;6.82;;
42092;SDS011;28974;50.316;18.960;2023-04-28T19:13:46;16.08;;;7.43;;
42092;SDS011;28974;50.316;18.960;2023-04-28T19:25:47;15.93;;;6.05;;
42092;SDS011;28974;50.316;18.960;2023-04-28T19:37:47;25.77;;;9.52;;
42092;SDS011;28974;50.316;18.960;2023-04-28T19:49:49;44.83;;;17.33;;
42092;SDS011;28974;50.316;18.960;2023-04-28T20:01:49;31.33;;;14.15;;
42092;SDS011;28974;50.316;18.960;2023-04-28T20:13:50;33.97;;;13.50;;
42092;SDS011;28974;50.316;18.960;2023-04-28T20:25:51;33.50;;;13.68;;
42092;SDS011;28974;50.316;18.960;2023-04-28T20:37:51;42.58;;;15.18;;
42092;SDS011;28974;50.316;18.960;2023-04-28T20:49:52;18.47;;;9.00;;
42092;SDS011;28974;50.316;18.960;2023-04-28T21:01:53;33.47;;;9.20;;
42092;SDS011;28974;50.316;18.960;2023-04-28T21:13:53;21.38;;;8.68;;
42092;SDS011;28974;50.316;18.960;2023-04-28T21:25:53;17.55;;;7.57;;
42092;SDS011;28974;50.316;18.960;2023-04-28T21:37:54;17.60;;;7.90;;
42092;SDS011;28974;50.316;18.960;2023-04-28T21:49:54;24.23;;;9.48;;
42092;SDS011;28974;50.316;18.960;2023-04-28T22:01:55;24.92;;;9.75;;
42092;SDS011;28974;50.316;18.960;2023-04-28T22:13:56;24.60;;;10.13;;
42092;SDS011;28974;50.316;18.960;2023-04-28T22:25:57;25.98;;;11.10;;
42092;SDS011;28974;50.316;18.960;2023-04-28T22:37:58;27.92;;;10.98;;
42092;SDS011;28974;50.316;18.960;2023-04-28T22:49:58;32.47;;;13.00;;
42092;SDS011;28974;50.316;18.960;2023-04-28T23:01:59;31.13;;;11.05;;
42092;SDS011;28974;50.316;18.960;2023-04-28T23:13:59;23.92;;;11.48;;
42092;SDS011;28974;50.316;18.960;2023-04-28T23:25:59;28.33;;;11.07;;
42092;SDS011;28974;50.316;18.960;2023-04-28T23:38:00;29.67;;;12.93;;
42092;SDS011;28974;50.316;18.960;2023-04-28T23:50:01;29.65;;;12.73;;
